Minto Bridge, Canada
Current Conditions -  °F | °C
As of 2:00 PM on Wednesday 28 Jan 2015 (Local Time) from CYMA Reporting Station
Clear Clear  
Wind Chill: -35°   Ceiling: Unl
Heat Index: -35°   Visibility: 20mi
Dew Point: -42°   Wind: 0mph
Humidity: 68%   Direction: NA
Pressure: 30.44"   Gusts: NA
Location:  63.7°N, 135.85°W
Report Text: CYMA 282200Z 00000KT 20SM SKC M37/M41 A3044 RMK SLP407
Loading
Personal Weather Stations






























Interactive Weather Map New forecast layout! Learn more

10-Day Weather Forecast

Advertisements
Track Severe Weather on mobile